createdAt,value
2022-10-25T00:01:18.607Z,875.57
2022-10-25T00:03:46.825Z,855.77
2022-10-25T00:06:17.030Z,865.73
2022-10-25T00:08:45.405Z,816.83
2022-10-25T00:11:19.818Z,822.90
2022-10-25T00:13:49.688Z,862.43
2022-10-25T00:16:20.198Z,845.33
2022-10-25T00:18:48.326Z,874.23
2022-10-25T00:21:16.410Z,860.37
2022-10-25T00:23:44.499Z,856.57
2022-10-25T00:26:12.877Z,855.13
2022-10-25T00:28:42.431Z,835.47
2022-10-25T00:31:13.394Z,871.13
2022-10-25T00:33:42.342Z,865.73
2022-10-25T00:36:12.315Z,862.97
2022-10-25T00:38:40.717Z,872.63
2022-10-25T00:41:09.886Z,861.00
2022-10-25T00:43:40.361Z,867.70
2022-10-25T00:46:14.129Z,851.67
2022-10-25T00:48:43.329Z,869.93
2022-10-25T00:51:11.444Z,846.37
2022-10-25T00:53:39.617Z,844.93
2022-10-25T00:56:13.576Z,860.80
2022-10-25T00:58:42.225Z,837.07
2022-10-25T01:01:11.767Z,833.27
2022-10-25T01:03:41.041Z,830.87
2022-10-25T01:06:15.422Z,854.50
2022-10-25T01:08:44.392Z,858.77
2022-10-25T01:11:12.955Z,843.30
2022-10-25T01:13:41.117Z,851.70
2022-10-25T01:16:17.524Z,856.10
2022-10-25T01:18:52.443Z,854.23
2022-10-25T01:21:41.383Z,880.10
2022-10-25T01:24:46.366Z,873.83
2022-10-25T01:27:38.206Z,853.30
2022-10-25T01:30:09.574Z,849.17
2022-10-25T01:32:43.703Z,843.33
2022-10-25T01:35:18.763Z,868.70
2022-10-25T01:37:57.928Z,877.77
2022-10-25T01:40:30.050Z,846.13
2022-10-25T01:43:02.539Z,877.07
2022-10-25T01:45:32.978Z,880.00
2022-10-25T01:48:04.745Z,865.83
2022-10-25T01:50:36.142Z,883.77
2022-10-25T01:53:04.199Z,865.80
2022-10-25T01:55:36.176Z,830.80
2022-10-25T01:58:12.330Z,882.20
2022-10-25T02:01:23.486Z,859.60
2022-10-25T02:03:56.833Z,883.20
2022-10-25T02:06:30.785Z,875.87
2022-10-25T02:09:03.837Z,857.30
2022-10-25T02:11:33.290Z,865.13
2022-10-25T02:14:09.071Z,864.40
2022-10-25T02:16:39.276Z,877.00
2022-10-25T02:19:11.547Z,841.87
2022-10-25T02:21:39.847Z,866.10
2022-10-25T02:24:10.936Z,844.53
2022-10-25T02:26:40.412Z,860.67
2022-10-25T02:29:09.524Z,870.97
2022-10-25T02:31:39.015Z,831.20
2022-10-25T02:34:08.623Z,857.70
2022-10-25T02:36:36.880Z,845.33
2022-10-25T02:39:05.569Z,838.40
2022-10-25T02:45:52.218Z,888.43
2022-10-25T02:48:21.543Z,843.63
2022-10-25T02:50:51.089Z,810.67
2022-10-25T02:53:19.211Z,855.57
2022-10-25T02:55:47.245Z,845.97
2022-10-25T02:58:15.336Z,858.43
2022-10-25T03:00:43.502Z,843.80
2022-10-25T03:03:11.602Z,857.33
2022-10-25T03:05:39.676Z,868.73
2022-10-25T03:08:09.193Z,876.60
2022-10-25T03:10:37.931Z,870.33
2022-10-25T03:13:06.059Z,836.87
2022-10-25T03:15:34.168Z,880.60
2022-10-25T03:18:02.197Z,879.57
2022-10-25T03:20:30.297Z,864.50
2022-10-25T03:22:58.354Z,866.40
2022-10-25T03:25:27.767Z,890.07
2022-10-25T03:27:55.884Z,860.33
2022-10-25T03:30:24.113Z,875.87
2022-10-25T03:32:52.286Z,891.23
2022-10-25T03:35:20.463Z,870.27
2022-10-25T03:37:49.182Z,855.07
2022-10-25T03:40:17.828Z,855.73
2022-10-25T03:42:47.366Z,867.33
2022-10-25T03:45:15.423Z,855.50
2022-10-25T03:47:43.526Z,838.30
2022-10-25T03:50:12.190Z,854.90
2022-10-25T03:52:40.421Z,827.40
2022-10-25T03:55:09.266Z,844.40
2022-10-25T03:57:37.365Z,810.63
2022-10-25T04:00:07.751Z,829.30
2022-10-25T04:02:41.977Z,850.07
2022-10-25T04:05:10.447Z,859.83
2022-10-25T04:07:38.446Z,813.23
2022-10-25T04:10:07.417Z,826.73
2022-10-25T04:12:35.583Z,844.63
2022-10-25T04:15:03.808Z,836.67
2022-10-25T04:17:33.260Z,830.87
2022-10-25T04:20:01.280Z,822.53
2022-10-25T04:22:29.474Z,827.27
2022-10-25T04:24:57.528Z,850.17
2022-10-25T04:27:25.638Z,826.43
2022-10-25T04:29:53.777Z,812.30
2022-10-25T04:32:21.853Z,842.50
2022-10-25T04:34:51.343Z,840.03
2022-10-25T04:37:19.455Z,827.33
2022-10-25T04:39:47.860Z,876.03
2022-10-25T04:42:15.860Z,854.10
2022-10-25T04:44:43.888Z,881.43
2022-10-25T04:47:12.010Z,856.80
2022-10-25T04:49:40.124Z,881.53
2022-10-25T04:52:09.737Z,890.50
2022-10-25T04:54:38.026Z,881.17
2022-10-25T04:57:07.190Z,876.60
2022-10-25T04:59:35.374Z,861.67
2022-10-25T05:02:03.486Z,859.77
2022-10-25T05:04:31.759Z,861.20
2022-10-25T05:06:59.837Z,874.67
2022-10-25T05:09:30.150Z,876.33
2022-10-25T05:11:58.756Z,864.70
2022-10-25T05:14:27.187Z,896.93
2022-10-25T05:16:55.873Z,863.93
2022-10-25T05:19:27.990Z,903.90
2022-10-25T05:21:56.796Z,890.47
2022-10-25T05:24:26.520Z,849.90
2022-10-25T05:26:56.957Z,874.77
2022-10-25T05:29:25.190Z,862.03
2022-10-25T05:31:53.822Z,873.87
2022-10-25T05:34:22.147Z,857.20
2022-10-25T05:36:52.756Z,870.10
2022-10-25T05:39:21.179Z,839.60
2022-10-25T05:41:49.832Z,851.43
2022-10-25T05:44:19.441Z,830.97
2022-10-25T05:46:47.626Z,851.57
2022-10-25T05:49:15.866Z,840.83
2022-10-25T05:51:44.096Z,824.13
2022-10-25T05:54:14.054Z,790.80
2022-10-25T05:56:42.926Z,784.10
2022-10-25T05:59:13.675Z,790.83
2022-10-25T06:01:45.287Z,742.03
2022-10-25T06:04:14.796Z,756.10
2022-10-25T06:06:45.008Z,735.07
2022-10-25T06:09:14.285Z,788.33
2022-10-25T06:11:42.375Z,751.27
2022-10-25T06:14:11.483Z,726.03
2022-10-25T06:16:40.370Z,728.90
2022-10-25T06:19:10.375Z,753.60
2022-10-25T06:21:38.801Z,733.20
2022-10-25T06:24:07.439Z,707.83
2022-10-25T06:26:35.642Z,730.47
2022-10-25T06:29:05.681Z,728.63
2022-10-25T06:31:34.228Z,706.63
2022-10-25T06:34:02.567Z,730.37
2022-10-25T06:36:32.461Z,727.60
2022-10-25T06:39:05.645Z,731.10
2022-10-25T06:41:38.013Z,742.20
2022-10-25T06:44:09.768Z,720.00
2022-10-25T06:47:04.790Z,740.27
2022-10-25T06:49:28.521Z,755.10
2022-10-25T06:51:58.033Z,753.57
2022-10-25T06:54:26.836Z,762.03
2022-10-25T06:56:59.697Z,778.00
2022-10-25T06:59:28.314Z,756.03
2022-10-25T07:01:57.480Z,747.40
2022-10-25T07:04:25.935Z,765.63
2022-10-25T07:06:55.387Z,739.20
2022-10-25T07:09:26.289Z,739.00
2022-10-25T07:11:56.911Z,783.03
2022-10-25T07:14:25.220Z,790.27
2022-10-25T07:16:53.358Z,750.80
2022-10-25T07:19:23.225Z,724.17
2022-10-25T07:21:51.692Z,656.20
2022-10-25T07:24:22.287Z,634.63
2022-10-25T07:26:57.765Z,670.43
2022-10-25T07:29:30.607Z,631.20
2022-10-25T07:32:24.241Z,626.43
2022-10-25T07:34:59.305Z,614.07
2022-10-25T07:37:27.682Z,628.87
2022-10-25T07:40:08.694Z,582.93
2022-10-25T07:42:40.323Z,596.07
2022-10-25T07:45:09.774Z,637.47
2022-10-25T07:47:37.928Z,592.13
2022-10-25T07:50:06.790Z,595.87
2022-10-25T07:52:34.913Z,603.73
2022-10-25T07:55:03.026Z,559.90
2022-10-25T07:57:31.185Z,558.87
2022-10-25T08:00:00.880Z,579.87
2022-10-25T08:02:29.033Z,569.77
2022-10-25T08:04:57.112Z,561.50
2022-10-25T08:07:25.656Z,589.47
2022-10-25T08:09:53.866Z,584.07
2022-10-25T08:12:22.717Z,584.77
2022-10-25T08:14:51.023Z,585.67
2022-10-25T08:17:20.629Z,605.83
2022-10-25T08:19:51.195Z,568.53
2022-10-25T08:22:19.766Z,575.23
2022-10-25T08:24:47.862Z,551.13
2022-10-25T08:27:16.097Z,548.37
2022-10-25T08:29:44.286Z,542.27
2022-10-25T08:32:12.486Z,541.00
2022-10-25T08:34:42.130Z,550.63
2022-10-25T08:37:11.891Z,563.33
2022-10-25T08:39:40.088Z,557.47
2022-10-25T08:42:08.272Z,566.23
2022-10-25T08:44:43.977Z,575.77
2022-10-25T08:47:15.292Z,569.87
2022-10-25T08:49:51.024Z,555.13
2022-10-25T08:52:23.071Z,552.70
2022-10-25T08:54:51.444Z,576.33
2022-10-25T08:57:24.321Z,603.03
2022-10-25T08:59:54.847Z,569.07
2022-10-25T09:02:35.427Z,581.83
2022-10-25T09:05:05.681Z,549.70
2022-10-25T09:07:45.942Z,583.27
2022-10-25T09:10:24.548Z,566.23
2022-10-25T09:12:58.101Z,592.47
2022-10-25T09:15:40.480Z,591.03
2022-10-25T09:18:17.039Z,577.40
2022-10-25T09:20:50.966Z,583.40
2022-10-25T09:23:28.058Z,567.37
2022-10-25T09:26:03.218Z,550.80
2022-10-25T09:28:41.757Z,562.87
2022-10-25T09:31:12.590Z,554.77
2022-10-25T09:33:42.668Z,583.87
2022-10-25T09:36:13.278Z,563.93
2022-10-25T09:38:44.897Z,560.53
2022-10-25T09:41:17.380Z,585.37
2022-10-25T09:43:49.667Z,584.33
2022-10-25T09:46:20.482Z,576.83
2022-10-25T09:48:55.585Z,624.43
2022-10-25T09:51:30.902Z,593.60
2022-10-25T09:53:59.214Z,609.57
2022-10-25T09:56:27.496Z,636.37
2022-10-25T09:59:08.804Z,617.33
2022-10-25T10:01:38.660Z,632.47
2022-10-25T10:04:21.447Z,626.93
2022-10-25T10:06:52.219Z,627.97
2022-10-25T10:09:20.594Z,626.87
2022-10-25T10:11:49.091Z,651.53
2022-10-25T10:14:25.682Z,592.97
2022-10-25T10:16:56.281Z,626.43
2022-10-25T10:19:25.481Z,618.43
2022-10-25T10:21:57.797Z,605.90
2022-10-25T10:24:28.423Z,599.70
2022-10-25T10:26:58.748Z,631.20
2022-10-25T10:29:28.874Z,645.27
2022-10-25T10:31:59.422Z,634.67
2022-10-25T10:34:30.600Z,629.20
2022-10-25T10:37:16.079Z,639.77
2022-10-25T10:39:50.326Z,633.20
2022-10-25T10:42:20.010Z,656.00
2022-10-25T10:45:15.514Z,620.37
2022-10-25T10:47:46.223Z,596.43
2022-10-25T10:50:23.363Z,633.63
2022-10-25T10:53:00.130Z,624.90
2022-10-25T10:55:31.377Z,602.43
2022-10-25T10:58:03.431Z,614.40
2022-10-25T11:00:32.699Z,602.73
2022-10-25T11:03:01.079Z,652.47
2022-10-25T11:05:30.598Z,607.97
2022-10-25T11:08:01.660Z,606.40
2022-10-25T11:10:31.633Z,599.20
2022-10-25T11:13:16.154Z,601.77
2022-10-25T11:15:57.723Z,609.50
2022-10-25T11:18:31.653Z,624.53
2022-10-25T11:21:05.376Z,624.50
2022-10-25T11:23:40.142Z,600.87
2022-10-25T11:26:13.496Z,632.83
2022-10-25T11:28:46.897Z,604.67
2022-10-25T11:31:22.153Z,627.43
2022-10-25T11:34:01.793Z,620.50
2022-10-25T11:36:55.840Z,630.00
2022-10-25T11:39:34.924Z,666.63
2022-10-25T11:42:13.313Z,610.00
2022-10-25T11:45:05.317Z,655.97
2022-10-25T11:47:43.037Z,624.30
2022-10-25T11:50:21.689Z,621.30
2022-10-25T11:53:20.589Z,629.63
2022-10-25T11:55:54.062Z,626.07
2022-10-25T11:58:31.740Z,641.17
2022-10-25T12:01:06.795Z,628.27
2022-10-25T12:03:49.382Z,601.53
2022-10-25T12:06:23.177Z,641.43
2022-10-25T12:09:02.148Z,614.93
2022-10-25T12:11:32.940Z,639.17
2022-10-25T12:14:05.349Z,630.93
2022-10-25T12:16:34.919Z,607.90
2022-10-25T12:19:09.095Z,622.13
2022-10-25T12:21:43.573Z,600.00
2022-10-25T12:24:18.314Z,609.37
2022-10-25T12:26:48.303Z,626.47
2022-10-25T12:29:19.369Z,641.30
2022-10-25T12:31:50.380Z,623.87
2022-10-25T12:34:21.079Z,618.63
2022-10-25T12:36:52.872Z,631.13
2022-10-25T12:39:24.366Z,596.30
2022-10-25T12:41:57.817Z,615.23
2022-10-25T12:44:38.727Z,613.97
2022-10-25T12:47:17.548Z,607.70
2022-10-25T12:49:58.379Z,629.73
2022-10-25T12:52:34.828Z,629.17
2022-10-25T12:55:43.184Z,660.93
2022-10-25T12:58:45.316Z,610.13
2022-10-25T13:01:29.260Z,635.20
2022-10-25T13:04:30.085Z,612.90
2022-10-25T13:07:17.176Z,618.27
2022-10-25T13:09:50.631Z,629.83
2022-10-25T13:12:50.627Z,615.20
2022-10-25T13:15:20.892Z,622.90
2022-10-25T13:18:06.588Z,623.80
2022-10-25T13:20:48.979Z,600.70
2022-10-25T13:24:02.997Z,632.47
2022-10-25T13:27:15.438Z,623.83
2022-10-25T13:30:04.007Z,607.43
2022-10-25T13:32:35.785Z,631.50
2022-10-25T13:35:04.548Z,643.10
2022-10-25T13:37:43.866Z,614.07
2022-10-25T13:40:26.192Z,631.93
2022-10-25T13:43:03.077Z,611.57
2022-10-25T13:45:35.952Z,624.17
2022-10-25T13:48:17.382Z,645.67
2022-10-25T13:50:47.095Z,615.37
2022-10-25T13:53:22.028Z,640.50
2022-10-25T13:55:59.348Z,644.03
2022-10-25T13:58:46.077Z,617.40
2022-10-25T14:01:55.893Z,640.43
2022-10-25T14:04:39.277Z,584.43
2022-10-25T14:07:45.031Z,605.10
2022-10-25T14:10:37.163Z,614.17
2022-10-25T14:13:17.809Z,615.90
2022-10-25T14:15:50.616Z,603.53
2022-10-25T14:18:22.502Z,631.77
2022-10-25T14:20:55.079Z,642.20
2022-10-25T14:23:24.529Z,632.57
2022-10-25T14:25:55.814Z,623.17
2022-10-25T14:28:25.847Z,637.40
2022-10-25T14:30:55.877Z,641.23
2022-10-25T14:33:26.693Z,638.00
2022-10-25T14:35:57.722Z,624.80
2022-10-25T14:38:27.743Z,631.80
2022-10-25T14:40:57.479Z,656.90
2022-10-25T14:43:31.421Z,637.43
2022-10-25T14:46:05.297Z,648.83
2022-10-25T14:48:34.423Z,668.63
2022-10-25T14:51:08.995Z,699.83
2022-10-25T14:53:38.436Z,656.37
2022-10-25T14:56:07.347Z,659.10
2022-10-25T14:58:41.349Z,650.23
2022-10-25T15:01:11.938Z,702.00
2022-10-25T15:03:42.609Z,676.57
2022-10-25T15:06:13.235Z,690.30
2022-10-25T15:08:42.652Z,683.13
2022-10-25T15:11:16.424Z,666.80
2022-10-25T15:13:45.716Z,690.03
2022-10-25T15:16:31.456Z,653.70
2022-10-25T15:19:08.004Z,656.63
2022-10-25T15:21:42.176Z,657.80
2022-10-25T15:24:15.707Z,681.17
2022-10-25T15:26:58.790Z,667.50
2022-10-25T15:29:31.295Z,621.00
2022-10-25T15:31:59.523Z,671.97
2022-10-25T15:34:27.507Z,681.57
2022-10-25T15:36:57.381Z,660.33
2022-10-25T15:39:27.706Z,696.77
2022-10-25T15:41:55.836Z,661.83
2022-10-25T15:44:24.256Z,667.53
2022-10-25T15:46:52.231Z,629.67
2022-10-25T15:49:20.634Z,663.63
2022-10-25T15:51:48.937Z,662.87
2022-10-25T15:54:19.854Z,627.67
2022-10-25T15:56:48.813Z,637.40
2022-10-25T16:01:52.675Z,660.73
2022-10-25T16:04:21.241Z,671.47
2022-10-25T16:06:49.610Z,649.10
2022-10-25T16:09:18.944Z,674.10
2022-10-25T16:11:50.562Z,661.93
2022-10-25T16:14:22.174Z,694.50
2022-10-25T16:16:50.943Z,697.63
2022-10-25T16:19:21.911Z,667.03
2022-10-25T16:21:50.159Z,694.97
2022-10-25T16:24:20.223Z,693.07
2022-10-25T16:26:50.177Z,684.43
2022-10-25T16:29:19.600Z,680.57
2022-10-25T16:31:47.924Z,675.67
2022-10-25T16:34:17.476Z,685.40
2022-10-25T16:36:46.078Z,719.90
2022-10-25T16:39:14.679Z,702.00
2022-10-25T16:41:46.205Z,727.83
2022-10-25T16:44:16.662Z,705.60
2022-10-25T16:46:45.443Z,696.47
2022-10-25T16:49:13.769Z,717.63
2022-10-25T16:51:42.034Z,710.27
2022-10-25T16:54:11.486Z,714.63
2022-10-25T16:56:39.582Z,719.23
2022-10-25T16:59:09.282Z,730.20
2022-10-25T17:01:38.989Z,734.20
2022-10-25T17:04:10.795Z,718.77
2022-10-25T17:06:42.627Z,760.80
2022-10-25T17:09:11.447Z,725.73
2022-10-25T17:11:39.578Z,742.33
2022-10-25T17:14:10.156Z,740.27
2022-10-25T17:16:39.906Z,723.83
2022-10-25T17:19:08.015Z,716.83
2022-10-25T17:21:36.138Z,723.87
2022-10-25T17:24:05.054Z,745.67
2022-10-25T17:26:33.488Z,734.97
2022-10-25T17:29:01.985Z,752.50
2022-10-25T17:31:35.419Z,747.43
2022-10-25T17:34:04.196Z,746.50
2022-10-25T17:36:32.693Z,730.10
2022-10-25T17:39:01.286Z,711.30
2022-10-25T17:41:29.446Z,728.63
2022-10-25T17:43:57.630Z,735.67
2022-10-25T17:46:27.750Z,730.27
2022-10-25T17:49:03.114Z,744.53
2022-10-25T17:51:31.822Z,698.87
2022-10-25T17:54:00.078Z,734.57
2022-10-25T17:56:29.309Z,735.90
2022-10-25T17:59:03.158Z,723.70
2022-10-25T18:01:35.243Z,734.73
2022-10-25T18:04:13.079Z,725.50
2022-10-25T18:06:50.453Z,725.10
2022-10-25T18:09:20.082Z,719.60
2022-10-25T18:11:50.577Z,728.17
2022-10-25T18:14:21.118Z,733.53
2022-10-25T18:16:51.401Z,712.67
2022-10-25T18:19:21.628Z,735.17
2022-10-25T18:21:49.888Z,722.73
2022-10-25T18:24:18.124Z,747.67
2022-10-25T18:26:46.334Z,751.67
2022-10-25T18:29:14.974Z,746.03
2022-10-25T18:31:43.057Z,761.53
2022-10-25T18:34:14.123Z,737.37
2022-10-25T18:36:50.946Z,752.20
2022-10-25T18:39:20.462Z,754.40
2022-10-25T18:41:50.547Z,747.53
2022-10-25T18:44:19.840Z,739.90
2022-10-25T18:46:49.915Z,765.53
2022-10-25T18:49:19.541Z,758.30
2022-10-25T18:51:53.459Z,756.47
2022-10-25T18:54:40.287Z,765.63
2022-10-25T18:57:11.483Z,750.63
2022-10-25T18:59:42.640Z,757.47
2022-10-25T19:02:14.167Z,765.90
2022-10-25T19:04:43.645Z,799.03
2022-10-25T19:07:15.402Z,747.20
2022-10-25T19:09:44.443Z,760.00
2022-10-25T19:12:14.259Z,782.13
2022-10-25T19:14:43.658Z,782.00
2022-10-25T19:17:13.245Z,780.20
2022-10-25T19:19:42.568Z,770.53
2022-10-25T19:22:11.751Z,766.47
2022-10-25T19:24:42.590Z,783.33
2022-10-25T19:27:12.100Z,795.07
2022-10-25T19:29:49.943Z,778.13
2022-10-25T19:32:20.470Z,794.90
2022-10-25T19:37:23.080Z,813.97
2022-10-25T19:39:58.999Z,784.50
2022-10-25T19:42:28.588Z,799.07
2022-10-25T19:45:01.253Z,804.50
2022-10-25T19:47:32.748Z,788.33
2022-10-25T19:50:09.129Z,792.27
2022-10-25T19:52:40.389Z,797.50
2022-10-25T19:55:11.613Z,816.53
2022-10-25T19:57:44.794Z,819.77
2022-10-25T20:00:16.077Z,815.90
2022-10-25T20:02:45.853Z,785.07
2022-10-25T20:05:21.048Z,809.03
2022-10-25T20:07:55.162Z,762.57
2022-10-25T20:10:29.951Z,786.37
2022-10-25T20:13:01.764Z,764.57
2022-10-25T20:15:31.109Z,759.93
2022-10-25T20:18:03.214Z,780.80
2022-10-25T20:20:32.757Z,785.57
2022-10-25T20:23:05.285Z,778.83
2022-10-25T20:25:36.702Z,784.83
2022-10-25T20:28:06.446Z,750.07
2022-10-25T20:30:38.149Z,770.97
2022-10-25T20:33:08.641Z,774.27
2022-10-25T20:35:45.911Z,761.20
2022-10-25T20:38:17.178Z,754.63
2022-10-25T20:40:52.556Z,751.90
2022-10-25T20:43:23.668Z,759.73
2022-10-25T20:45:54.586Z,758.07
2022-10-25T20:48:23.636Z,737.70
2022-10-25T20:50:54.122Z,739.90
2022-10-25T20:53:24.348Z,739.83
2022-10-25T20:55:58.922Z,768.83
2022-10-25T20:58:32.190Z,743.50
2022-10-25T21:01:08.012Z,732.10
2022-10-25T21:03:38.141Z,710.77
2022-10-25T21:06:15.153Z,772.10
2022-10-25T21:08:43.897Z,738.23
2022-10-25T21:11:14.340Z,745.33
2022-10-25T21:13:43.035Z,742.33
2022-10-25T21:16:12.895Z,746.23
2022-10-25T21:18:42.485Z,765.67
2022-10-25T21:21:12.863Z,759.93
2022-10-25T21:23:41.905Z,739.47
2022-10-25T21:26:11.429Z,769.87
2022-10-25T21:28:42.773Z,753.27
2022-10-25T21:31:12.215Z,744.70
2022-10-25T21:33:41.744Z,787.60
2022-10-25T21:36:12.271Z,788.97
2022-10-25T21:38:40.832Z,790.50
2022-10-25T21:41:11.016Z,768.33
2022-10-25T21:43:43.293Z,813.90
2022-10-25T21:46:11.827Z,812.23
2022-10-25T21:48:40.077Z,797.10
2022-10-25T21:51:08.224Z,802.97
2022-10-25T21:53:36.483Z,802.90
2022-10-25T21:56:11.161Z,824.20
2022-10-25T21:58:41.925Z,781.63
2022-10-25T22:01:11.192Z,819.83
2022-10-25T22:03:39.494Z,811.63
2022-10-25T22:06:08.144Z,819.80
2022-10-25T22:08:36.114Z,811.83
2022-10-25T22:11:06.499Z,808.23
2022-10-25T22:13:34.884Z,803.50
2022-10-25T22:16:06.691Z,797.20
2022-10-25T22:18:35.243Z,805.43
2022-10-25T22:21:05.771Z,823.97
2022-10-25T22:23:34.456Z,813.23
2022-10-25T22:26:03.513Z,810.37
2022-10-25T22:28:33.346Z,807.60
2022-10-25T22:31:06.983Z,794.10
2022-10-25T22:33:35.579Z,810.37
2022-10-25T22:38:32.228Z,836.23
2022-10-25T22:41:01.473Z,834.40
2022-10-25T22:43:30.063Z,815.40
2022-10-25T22:46:01.623Z,813.83
2022-10-25T22:48:33.159Z,821.37
2022-10-25T22:51:01.651Z,819.13
2022-10-25T22:53:30.237Z,806.27
2022-10-25T22:56:00.088Z,833.63
2022-10-25T22:58:29.520Z,831.00
2022-10-25T23:01:00.505Z,796.07
2022-10-25T23:03:28.628Z,842.03
2022-10-25T23:06:02.164Z,793.73
2022-10-25T23:08:30.706Z,820.37
2022-10-25T23:11:00.165Z,851.90
2022-10-25T23:13:28.529Z,820.20
2022-10-25T23:15:56.609Z,795.93
2022-10-25T23:18:25.461Z,831.13
2022-10-25T23:20:54.622Z,819.90
2022-10-25T23:23:25.681Z,824.63
2022-10-25T23:25:54.511Z,829.10
2022-10-25T23:28:22.944Z,829.87
2022-10-25T23:30:51.027Z,817.77
2022-10-25T23:33:19.114Z,829.63
2022-10-25T23:35:47.202Z,810.63
2022-10-25T23:38:15.413Z,853.13
2022-10-25T23:40:47.990Z,825.50
2022-10-25T23:43:16.210Z,823.17
2022-10-25T23:45:44.322Z,826.97
2022-10-25T23:48:12.493Z,826.67
2022-10-25T23:50:40.628Z,847.23
2022-10-25T23:53:09.458Z,849.60
2022-10-25T23:55:38.747Z,850.10
2022-10-25T23:58:08.262Z,833.87
